Time;durP1;ratioP1;P1;durP2;ratioP2;P2;SDS_P1;SDS_P2;PMS_P1;PMS_P2;Temp;Humidity;BMP_temperature;BMP_pressure;BME280_temperature;BME280_humidity;BME280_pressure;Samples;Min_cycle;Max_cycle;Signal;HPM_P1;HPM_P2
2022/09/17 00:00:41;;;;;;;2.77;1.63;;;;;;;;;;5115234;27;20199;-65
2022/09/17 00:03:09;;;;;;;1.53;1.20;;;;;;;;;;5133463;27;20748;-66
2022/09/17 00:05:37;;;;;;;1.33;1.20;;;;;;;;;;5114710;27;20226;-66
2022/09/17 00:08:06;;;;;;;1.40;1.30;;;;;;;;;;5114832;27;20306;-65
2022/09/17 00:10:37;;;;;;;1.30;1.20;;;;;;;;;;5115617;27;20286;-65
2022/09/17 00:13:04;;;;;;;1.57;1.33;;;;;;;;;;5114943;27;20199;-66
2022/09/17 00:15:31;;;;;;;1.57;1.40;;;;;;;;;;5117312;27;20294;-67
2022/09/17 00:17:59;;;;;;;1.40;1.40;;;;;;;;;;5115034;27;20200;-67
2022/09/17 00:20:27;;;;;;;1.30;1.30;;;;;;;;;;5133109;27;20294;-65
2022/09/17 00:22:54;;;;;;;1.57;1.20;;;;;;;;;;5115102;27;20229;-65
2022/09/17 00:25:22;;;;;;;1.57;1.47;;;;;;;;;;5115893;27;20311;-64
2022/09/17 00:27:49;;;;;;;1.40;1.40;;;;;;;;;;5114844;27;20232;-66
2022/09/17 00:30:16;;;;;;;1.67;1.37;;;;;;;;;;5114683;27;20278;-65
2022/09/17 00:32:44;;;;;;;2.10;1.63;;;;;;;;;;5130449;27;20202;-64
2022/09/17 00:35:11;;;;;;;1.70;1.60;;;;;;;;;;5153574;27;20676;-64
2022/09/17 00:37:38;;;;;;;1.90;1.80;;;;;;;;;;5135128;27;20214;-65
2022/09/17 00:40:06;;;;;;;1.93;1.83;;;;;;;;;;5135360;27;20214;-66
2022/09/17 00:42:33;;;;;;;1.90;1.80;;;;;;;;;;5135562;27;20229;-64
2022/09/17 00:45:01;;;;;;;2.53;1.70;;;;;;;;;;5134956;27;20317;-65
2022/09/17 00:47:29;;;;;;;1.70;1.60;;;;;;;;;;5134383;27;20313;-65
2022/09/17 00:50:03;;;;;;;2.60;2.23;;;;;;;;;;5116379;27;20661;-65
2022/09/17 00:52:33;;;;;;;2.00;1.90;;;;;;;;;;5114248;27;20380;-66
2022/09/17 00:55:09;;;;;;;3.07;2.20;;;;;;;;;;5114147;27;20306;-64
2022/09/17 00:57:36;;;;;;;2.23;1.90;;;;;;;;;;5114225;27;20207;-67
2022/09/17 01:00:05;;;;;;;2.40;2.20;;;;;;;;;;5114204;27;20206;-66
2022/09/17 01:02:32;;;;;;;2.10;2.00;;;;;;;;;;5113964;27;20291;-66
2022/09/17 01:04:59;;;;;;;3.27;1.90;;;;;;;;;;5133001;27;20321;-64
2022/09/17 01:07:47;;;;;;;2.13;1.90;;;;;;;;;;5134162;27;20218;-67
2022/09/17 01:10:17;;;;;;;2.37;2.03;;;;;;;;;;5106829;27;20627;-65
2022/09/17 01:12:57;;;;;;;3.33;2.20;;;;;;;;;;5152741;27;20675;-66
2022/09/17 01:15:43;;;;;;;3.90;1.80;;;;;;;;;;5123725;27;20689;-65
2022/09/17 01:18:13;;;;;;;2.77;2.10;;;;;;;;;;5113812;27;20204;-65
2022/09/17 01:20:41;;;;;;;2.10;2.00;;;;;;;;;;5113798;27;20207;-67
2022/09/17 01:23:08;;;;;;;3.40;2.20;;;;;;;;;;5114018;27;20199;-65
2022/09/17 01:26:02;;;;;;;2.80;2.50;;;;;;;;;;5114004;27;20669;-66
2022/09/17 01:28:35;;;;;;;2.50;2.10;;;;;;;;;;5076198;27;20322;-66
2022/09/17 01:31:16;;;;;;;2.60;2.00;;;;;;;;;;5139424;27;20207;-68
2022/09/17 01:34:01;;;;;;;2.60;2.40;;;;;;;;;;5124764;27;20227;-66
2022/09/17 01:36:52;;;;;;;2.90;1.97;;;;;;;;;;5114539;27;20317;-65
2022/09/17 01:39:38;;;;;;;2.10;1.90;;;;;;;;;;5114747;27;20655;-66
2022/09/17 01:42:09;;;;;;;3.90;3.60;;;;;;;;;;5113746;27;20298;-63
2022/09/17 01:44:55;;;;;;;2.93;2.47;;;;;;;;;;5113657;27;20227;-67
2022/09/17 01:47:26;;;;;;;2.40;2.13;;;;;;;;;;5131379;27;20222;-63
2022/09/17 01:49:56;;;;;;;2.87;2.60;;;;;;;;;;5113397;27;20227;-65
2022/09/17 01:52:25;;;;;;;2.43;2.23;;;;;;;;;;5113099;27;20696;-65
2022/09/17 01:54:55;;;;;;;2.83;2.40;;;;;;;;;;5113706;28;20776;-66
2022/09/17 01:57:35;;;;;;;4.00;2.20;;;;;;;;;;5122140;27;20211;-65
2022/09/17 02:00:06;;;;;;;4.23;2.50;;;;;;;;;;5113446;27;20612;-65
2022/09/17 02:02:39;;;;;;;2.47;2.33;;;;;;;;;;5112519;27;20203;-65
2022/09/17 02:05:11;;;;;;;3.00;2.80;;;;;;;;;;5113013;27;20318;-65
2022/09/17 02:07:41;;;;;;;3.63;2.87;;;;;;;;;;5113030;27;20204;-65
2022/09/17 02:10:16;;;;;;;3.00;2.80;;;;;;;;;;5113077;27;20205;-65
2022/09/17 02:12:52;;;;;;;4.00;3.60;;;;;;;;;;5113212;27;20238;-66
2022/09/17 02:15:21;;;;;;;3.40;3.17;;;;;;;;;;5111149;28;20317;-64
2022/09/17 02:17:51;;;;;;;5.97;3.60;;;;;;;;;;5112621;28;20690;-65
2022/09/17 02:20:24;;;;;;;3.47;3.17;;;;;;;;;;5112645;28;20256;-65
2022/09/17 02:23:04;;;;;;;3.70;3.20;;;;;;;;;;5112770;28;20204;-66
2022/09/17 02:25:33;;;;;;;4.90;3.60;;;;;;;;;;5112934;28;20187;-65
2022/09/17 02:28:22;;;;;;;3.60;3.30;;;;;;;;;;5113570;28;20257;-66
2022/09/17 02:30:49;;;;;;;4.50;3.80;;;;;;;;;;5129663;28;20293;-67
2022/09/17 02:33:18;;;;;;;3.40;3.20;;;;;;;;;;5131559;28;20204;-65
2022/09/17 02:35:46;;;;;;;4.03;3.10;;;;;;;;;;5113092;28;20202;-66
2022/09/17 02:38:13;;;;;;;3.47;3.17;;;;;;;;;;5131281;28;20282;-66
2022/09/17 02:40:49;;;;;;;3.53;3.20;;;;;;;;;;5113479;28;20297;-64
2022/09/17 02:43:19;;;;;;;3.10;2.87;;;;;;;;;;5131568;28;20302;-65
2022/09/17 02:46:22;;;;;;;3.27;2.73;;;;;;;;;;5131247;28;20306;-65
2022/09/17 02:49:07;;;;;;;3.10;2.80;;;;;;;;;;5012195;28;20256;-65
2022/09/17 02:51:43;;;;;;;3.60;3.00;;;;;;;;;;5101588;28;20191;-64
2022/09/17 02:54:30;;;;;;;3.67;2.90;;;;;;;;;;5114481;28;20282;-65
2022/09/17 02:57:17;;;;;;;3.37;3.07;;;;;;;;;;5117492;28;20259;-67
2022/09/17 02:59:48;;;;;;;6.37;2.80;;;;;;;;;;5112927;28;20203;-65
2022/09/17 03:02:40;;;;;;;2.93;2.73;;;;;;;;;;5114176;28;20203;-65
2022/09/17 03:05:08;;;;;;;5.03;3.20;;;;;;;;;;5123767;27;20219;-65
2022/09/17 03:07:36;;;;;;;2.83;2.63;;;;;;;;;;5133963;27;20653;-65
2022/09/17 03:10:03;;;;;;;4.50;2.90;;;;;;;;;;5133532;27;20238;-65
2022/09/17 03:12:31;;;;;;;3.03;2.73;;;;;;;;;;5133409;27;20195;-65
2022/09/17 03:14:58;;;;;;;3.97;2.70;;;;;;;;;;5151222;27;20215;-65
2022/09/17 03:17:25;;;;;;;3.00;2.73;;;;;;;;;;5116082;27;20207;-65
2022/09/17 03:19:53;;;;;;;5.67;2.33;;;;;;;;;;5115752;27;20234;-67
2022/09/17 03:22:20;;;;;;;3.27;2.97;;;;;;;;;;5118161;27;20239;-66
2022/09/17 03:24:47;;;;;;;3.13;2.90;;;;;;;;;;5116335;27;20583;-65
2022/09/17 03:27:14;;;;;;;3.57;3.30;;;;;;;;;;5115634;27;20718;-65
2022/09/17 03:29:42;;;;;;;5.30;3.77;;;;;;;;;;5115806;27;20282;-65
2022/09/17 03:32:09;;;;;;;4.40;3.53;;;;;;;;;;5115812;27;20598;-66
2022/09/17 03:34:37;;;;;;;3.33;3.03;;;;;;;;;;5116357;27;20712;-65
2022/09/17 03:37:04;;;;;;;3.57;3.27;;;;;;;;;;5115712;27;20300;-64
2022/09/17 03:39:31;;;;;;;3.07;2.87;;;;;;;;;;5116253;27;20294;-65
2022/09/17 03:41:58;;;;;;;3.20;2.70;;;;;;;;;;5116174;27;20290;-65
2022/09/17 03:44:26;;;;;;;3.07;2.77;;;;;;;;;;5115662;27;20581;-64
2022/09/17 03:46:53;;;;;;;3.20;2.47;;;;;;;;;;5133351;27;20258;-63
2022/09/17 03:49:22;;;;;;;2.47;2.27;;;;;;;;;;5115806;27;20223;-65
2022/09/17 03:51:50;;;;;;;2.07;1.90;;;;;;;;;;5115688;27;20236;-66
2022/09/17 03:54:18;;;;;;;2.03;1.70;;;;;;;;;;5115358;27;20215;-63
2022/09/17 03:56:45;;;;;;;2.13;1.60;;;;;;;;;;5110860;27;20769;-66
2022/09/17 03:59:12;;;;;;;1.93;1.60;;;;;;;;;;5113563;27;20577;-65
2022/09/17 04:01:40;;;;;;;4.27;1.60;;;;;;;;;;5125516;27;20210;-65
2022/09/17 04:04:07;;;;;;;1.67;1.50;;;;;;;;;;5113478;27;20223;-64
2022/09/17 04:06:35;;;;;;;2.13;1.60;;;;;;;;;;5094609;28;20299;-65
2022/09/17 04:09:04;;;;;;;3.40;1.60;;;;;;;;;;5094446;28;20319;-63
2022/09/17 04:11:31;;;;;;;2.93;1.33;;;;;;;;;;5108060;27;20286;-64
2022/09/17 04:13:58;;;;;;;2.30;1.70;;;;;;;;;;5115301;27;20227;-63
2022/09/17 04:16:26;;;;;;;3.03;1.30;;;;;;;;;;5115511;27;20290;-64
2022/09/17 04:18:53;;;;;;;1.50;1.40;;;;;;;;;;5114944;27;20203;-66
2022/09/17 04:21:20;;;;;;;3.33;1.90;;;;;;;;;;5132858;27;20286;-65
2022/09/17 04:23:47;;;;;;;2.93;2.50;;;;;;;;;;5114654;27;20314;-65
2022/09/17 04:26:15;;;;;;;2.70;1.77;;;;;;;;;;5131758;27;20630;-65
2022/09/17 04:28:42;;;;;;;3.30;1.83;;;;;;;;;;5114548;27;20730;-65
2022/09/17 04:31:09;;;;;;;3.03;2.70;;;;;;;;;;5115217;27;20651;-65
2022/09/17 04:33:37;;;;;;;2.33;2.13;;;;;;;;;;5115163;27;20228;-64
2022/09/17 04:36:07;;;;;;;2.37;2.00;;;;;;;;;;5114638;27;20573;-65
2022/09/17 04:38:35;;;;;;;3.60;2.57;;;;;;;;;;5114241;27;20734;-67
2022/09/17 04:41:02;;;;;;;3.33;2.50;;;;;;;;;;5114453;27;20291;-65
2022/09/17 04:43:29;;;;;;;2.80;2.60;;;;;;;;;;5114536;27;20223;-65
2022/09/17 04:45:57;;;;;;;2.90;2.43;;;;;;;;;;5112216;27;20714;-64
2022/09/17 04:48:24;;;;;;;2.60;2.40;;;;;;;;;;5115411;27;20219;-66
2022/09/17 04:50:51;;;;;;;4.10;2.97;;;;;;;;;;5114360;27;20642;-66
2022/09/17 04:53:19;;;;;;;3.60;2.07;;;;;;;;;;5114166;27;20196;-65
2022/09/17 04:55:46;;;;;;;3.10;2.30;;;;;;;;;;5114118;27;20210;-65
2022/09/17 04:58:14;;;;;;;3.63;2.70;;;;;;;;;;5113840;27;20199;-65
2022/09/17 05:00:41;;;;;;;5.27;3.90;;;;;;;;;;5113559;27;20286;-65
2022/09/17 05:03:09;;;;;;;4.07;2.70;;;;;;;;;;5114227;27;20295;-65
2022/09/17 05:05:36;;;;;;;3.47;2.60;;;;;;;;;;5113570;27;20322;-68
2022/09/17 05:08:03;;;;;;;2.40;2.20;;;;;;;;;;5105122;27;20227;-65
2022/09/17 05:10:30;;;;;;;4.40;2.43;;;;;;;;;;5113866;27;20195;-65
2022/09/17 05:12:58;;;;;;;3.17;2.80;;;;;;;;;;5113551;27;20673;-65
2022/09/17 05:15:26;;;;;;;3.63;3.10;;;;;;;;;;5109650;27;20314;-66
2022/09/17 05:17:53;;;;;;;2.67;2.47;;;;;;;;;;5113664;27;20235;-64
2022/09/17 05:20:21;;;;;;;2.60;2.40;;;;;;;;;;5114131;27;20199;-66
2022/09/17 05:22:50;;;;;;;3.10;2.37;;;;;;;;;;5132001;27;20287;-65
2022/09/17 05:25:18;;;;;;;2.60;2.40;;;;;;;;;;5113659;27;20254;-65
2022/09/17 05:27:45;;;;;;;4.37;2.50;;;;;;;;;;5113315;27;20261;-65
2022/09/17 05:30:13;;;;;;;5.97;2.57;;;;;;;;;;5113642;27;20196;-66
2022/09/17 05:32:40;;;;;;;2.70;2.47;;;;;;;;;;5113725;27;20207;-65
2022/09/17 05:35:08;;;;;;;4.37;3.00;;;;;;;;;;5113796;27;20249;-65
2022/09/17 05:37:36;;;;;;;7.10;2.60;;;;;;;;;;5113904;27;20727;-64
2022/09/17 05:40:05;;;;;;;3.60;2.60;;;;;;;;;;5114107;27;20294;-65
2022/09/17 05:42:33;;;;;;;5.67;2.67;;;;;;;;;;5114071;27;20215;-65
2022/09/17 05:45:00;;;;;;;5.93;3.00;;;;;;;;;;5109185;27;20314;-65
2022/09/17 05:47:28;;;;;;;5.90;3.10;;;;;;;;;;5113137;27;20219;-65
2022/09/17 05:49:55;;;;;;;6.80;3.40;;;;;;;;;;5113629;27;20314;-65
2022/09/17 05:52:26;;;;;;;7.43;3.37;;;;;;;;;;5111605;27;20294;-66
2022/09/17 05:54:54;;;;;;;4.90;2.80;;;;;;;;;;5114937;27;20763;-64
2022/09/17 05:57:21;;;;;;;7.60;2.70;;;;;;;;;;5112023;27;20290;-65
2022/09/17 05:59:49;;;;;;;4.60;2.30;;;;;;;;;;5112559;27;20206;-65
2022/09/17 06:02:16;;;;;;;5.77;2.40;;;;;;;;;;5112772;27;20286;-64
2022/09/17 06:04:44;;;;;;;3.40;2.33;;;;;;;;;;5112899;27;20223;-66
2022/09/17 06:07:11;;;;;;;3.87;1.93;;;;;;;;;;5112550;27;20286;-65
2022/09/17 06:09:39;;;;;;;4.87;2.30;;;;;;;;;;5113355;27;20348;-65
2022/09/17 06:12:07;;;;;;;4.60;2.33;;;;;;;;;;5111142;28;20226;-67
2022/09/17 06:14:34;;;;;;;5.47;2.10;;;;;;;;;;5107559;28;20781;-64
2022/09/17 06:17:02;;;;;;;7.67;2.50;;;;;;;;;;5131212;27;20635;-66
2022/09/17 06:19:29;;;;;;;4.27;2.20;;;;;;;;;;5112026;28;20246;-65
2022/09/17 06:21:56;;;;;;;5.00;3.37;;;;;;;;;;5112900;28;20201;-66
2022/09/17 06:24:24;;;;;;;2.70;2.20;;;;;;;;;;5113254;28;20354;-65
2022/09/17 06:26:52;;;;;;;2.37;2.00;;;;;;;;;;5112109;28;20211;-64
2022/09/17 06:29:19;;;;;;;6.40;2.40;;;;;;;;;;5114664;28;20314;-64
2022/09/17 06:31:48;;;;;;;2.63;2.43;;;;;;;;;;5130726;28;20203;-66
2022/09/17 06:34:16;;;;;;;6.07;2.53;;;;;;;;;;5112327;28;20292;-65
2022/09/17 06:36:43;;;;;;;4.37;2.30;;;;;;;;;;5112327;28;20278;-65
2022/09/17 06:39:11;;;;;;;3.80;2.43;;;;;;;;;;5130229;28;20298;-66
2022/09/17 06:41:38;;;;;;;6.60;2.63;;;;;;;;;;5112088;28;20318;-65
2022/09/17 06:44:05;;;;;;;4.00;2.50;;;;;;;;;;5112626;28;20593;-65
2022/09/17 06:46:33;;;;;;;4.70;2.23;;;;;;;;;;5125141;27;20211;-66
2022/09/17 06:49:00;;;;;;;6.40;2.40;;;;;;;;;;5133295;27;20268;-64
2022/09/17 06:51:27;;;;;;;2.70;2.00;;;;;;;;;;5117044;27;20286;-64
2022/09/17 06:53:55;;;;;;;5.87;2.63;;;;;;;;;;5115952;27;20791;-66
2022/09/17 06:56:22;;;;;;;5.47;2.13;;;;;;;;;;5114583;27;20734;-64
2022/09/17 06:58:49;;;;;;;7.67;2.13;;;;;;;;;;5116183;27;20209;-66
2022/09/17 07:01:16;;;;;;;2.43;1.90;;;;;;;;;;5116535;27;20290;-64
2022/09/17 07:03:44;;;;;;;4.93;1.90;;;;;;;;;;5117326;27;20227;-64
2022/09/17 07:06:11;;;;;;;4.67;1.83;;;;;;;;;;5115749;27;20298;-65
2022/09/17 07:08:39;;;;;;;10.03;2.10;;;;;;;;;;5116350;27;20258;-65
2022/09/17 07:11:07;;;;;;;3.03;1.60;;;;;;;;;;5115448;27;20237;-65
2022/09/17 07:13:34;;;;;;;3.57;1.77;;;;;;;;;;5108021;27;20215;-66
2022/09/17 07:16:04;;;;;;;4.90;1.90;;;;;;;;;;5116124;27;20244;-64
2022/09/17 07:18:31;;;;;;;3.50;1.73;;;;;;;;;;5116709;27;20441;-65
2022/09/17 07:21:00;;;;;;;3.33;1.93;;;;;;;;;;5117585;27;20217;-65
2022/09/17 07:23:28;;;;;;;3.57;1.80;;;;;;;;;;5115470;27;20306;-67
2022/09/17 07:25:56;;;;;;;3.20;1.90;;;;;;;;;;5115597;27;20208;-66
2022/09/17 07:28:24;;;;;;;3.63;1.80;;;;;;;;;;5113930;27;20211;-65
2022/09/17 07:30:52;;;;;;;4.37;1.77;;;;;;;;;;5115778;27;20231;-65
2022/09/17 07:33:24;;;;;;;4.73;1.80;;;;;;;;;;5115626;27;20657;-65
2022/09/17 07:35:55;;;;;;;4.27;1.73;;;;;;;;;;5115684;27;20226;-64
2022/09/17 07:38:23;;;;;;;4.23;1.90;;;;;;;;;;5114252;27;20229;-66
2022/09/17 07:40:58;;;;;;;4.67;2.20;;;;;;;;;;5116267;27;20195;-66
2022/09/17 07:43:29;;;;;;;3.63;1.70;;;;;;;;;;5115644;27;20234;-64
2022/09/17 07:45:57;;;;;;;3.57;1.70;;;;;;;;;;5115331;27;20200;-65
2022/09/17 07:48:25;;;;;;;2.97;2.00;;;;;;;;;;5116290;27;20535;-65
2022/09/17 07:50:52;;;;;;;3.83;2.00;;;;;;;;;;5115285;27;20203;-65
2022/09/17 07:53:21;;;;;;;4.43;2.10;;;;;;;;;;5116042;27;20227;-64
2022/09/17 07:55:55;;;;;;;4.10;1.90;;;;;;;;;;5114999;27;20294;-65
2022/09/17 07:58:24;;;;;;;3.13;1.80;;;;;;;;;;5114151;27;20205;-67
2022/09/17 08:00:51;;;;;;;2.40;1.83;;;;;;;;;;5113908;27;20286;-67
2022/09/17 08:03:18;;;;;;;4.13;1.90;;;;;;;;;;5115770;27;20253;-65
2022/09/17 08:05:46;;;;;;;4.60;2.30;;;;;;;;;;5114701;27;20210;-65
2022/09/17 08:08:14;;;;;;;3.53;1.97;;;;;;;;;;5115753;27;20613;-65
2022/09/17 08:10:47;;;;;;;7.73;2.20;;;;;;;;;;5118404;27;20600;-67
2022/09/17 08:13:14;;;;;;;2.77;1.80;;;;;;;;;;5115270;27;20286;-65
2022/09/17 08:15:41;;;;;;;8.10;1.80;;;;;;;;;;5113874;27;20375;-65
2022/09/17 08:18:09;;;;;;;5.63;1.97;;;;;;;;;;5111753;27;20208;-68
2022/09/17 08:20:36;;;;;;;5.10;2.50;;;;;;;;;;5115043;27;20206;-65
2022/09/17 08:23:03;;;;;;;2.57;1.73;;;;;;;;;;5115246;27;20707;-65
2022/09/17 08:25:31;;;;;;;4.10;1.40;;;;;;;;;;5114131;27;20241;-65
2022/09/17 08:27:58;;;;;;;3.63;1.37;;;;;;;;;;5115067;27;20242;-65
2022/09/17 08:30:25;;;;;;;2.40;1.20;;;;;;;;;;5114565;27;20627;-65
2022/09/17 08:32:55;;;;;;;1.97;1.30;;;;;;;;;;5114910;27;20199;-64
2022/09/17 08:35:24;;;;;;;3.17;1.60;;;;;;;;;;5114577;27;20224;-65
2022/09/17 08:37:54;;;;;;;2.70;1.40;;;;;;;;;;5110688;28;20287;-65
2022/09/17 08:40:22;;;;;;;1.13;1.13;;;;;;;;;;5112432;27;20199;-65
2022/09/17 08:42:55;;;;;;;1.57;1.47;;;;;;;;;;5114570;27;20214;-66
2022/09/17 08:45:22;;;;;;;1.90;1.27;;;;;;;;;;5127302;27;20241;-64
2022/09/17 08:47:49;;;;;;;2.43;1.30;;;;;;;;;;5112558;27;20627;-65
2022/09/17 08:50:26;;;;;;;1.50;1.40;;;;;;;;;;5131153;27;20221;-68
2022/09/17 08:53:12;;;;;;;1.90;1.47;;;;;;;;;;5136118;27;20630;-66
2022/09/17 08:55:46;;;;;;;3.23;1.53;;;;;;;;;;5121749;27;20198;-65
2022/09/17 08:58:13;;;;;;;1.50;1.30;;;;;;;;;;5114882;27;20207;-64
2022/09/17 09:00:56;;;;;;;2.23;1.30;;;;;;;;;;5114452;27;20199;-66
2022/09/17 09:03:36;;;;;;;6.63;1.83;;;;;;;;;;5111007;28;20749;-65
2022/09/17 09:06:03;;;;;;;3.00;1.63;;;;;;;;;;5093542;27;20290;-65
2022/09/17 09:08:36;;;;;;;2.30;1.60;;;;;;;;;;5107197;27;20681;-65
2022/09/17 09:11:07;;;;;;;1.33;1.30;;;;;;;;;;5132539;27;20282;-65
2022/09/17 09:13:36;;;;;;;1.60;1.50;;;;;;;;;;5113952;27;20218;-65
2022/09/17 09:16:06;;;;;;;1.63;1.53;;;;;;;;;;5113802;27;20676;-65
2022/09/17 09:18:36;;;;;;;4.40;1.50;;;;;;;;;;5114535;27;20606;-66
2022/09/17 09:21:09;;;;;;;3.60;1.50;;;;;;;;;;5113771;27;20242;-66
2022/09/17 09:23:51;;;;;;;2.77;1.57;;;;;;;;;;5105794;27;20792;-65
2022/09/17 09:26:20;;;;;;;3.33;1.10;;;;;;;;;;5112927;27;20253;-63
2022/09/17 09:28:50;;;;;;;1.77;1.20;;;;;;;;;;5108459;27;20239;-64
2022/09/17 09:31:21;;;;;;;3.17;1.30;;;;;;;;;;5113547;27;20278;-65
2022/09/17 09:33:50;;;;;;;5.70;1.50;;;;;;;;;;5113882;27;20227;-66
2022/09/17 09:36:20;;;;;;;4.97;1.50;;;;;;;;;;5114203;27;20314;-65
2022/09/17 09:38:48;;;;;;;1.63;1.30;;;;;;;;;;5113489;27;20207;-66
2022/09/17 09:41:19;;;;;;;1.90;1.27;;;;;;;;;;5113246;27;20438;-66
2022/09/17 09:43:47;;;;;;;2.63;1.50;;;;;;;;;;5113217;27;20302;-66
2022/09/17 09:46:37;;;;;;;1.50;1.40;;;;;;;;;;5115642;27;20207;-65
2022/09/17 09:49:23;;;;;;;3.17;1.30;;;;;;;;;;5112952;27;20317;-65
2022/09/17 09:51:54;;;;;;;4.47;1.90;;;;;;;;;;5113528;27;20294;-65
2022/09/17 09:54:24;;;;;;;3.30;1.40;;;;;;;;;;5133974;27;20256;-66
2022/09/17 09:57:02;;;;;;;1.73;1.60;;;;;;;;;;5133442;27;20201;-66
2022/09/17 09:59:29;;;;;;;6.03;1.70;;;;;;;;;;5112448;27;20677;-66
2022/09/17 10:01:56;;;;;;;3.43;1.37;;;;;;;;;;5113562;27;20246;-65
2022/09/17 10:04:25;;;;;;;5.57;1.83;;;;;;;;;;5113039;27;20227;-64
2022/09/17 10:06:54;;;;;;;3.33;1.60;;;;;;;;;;5111899;27;20210;-66
2022/09/17 10:09:22;;;;;;;3.40;1.70;;;;;;;;;;5116811;27;20227;-65
2022/09/17 10:12:07;;;;;;;3.50;2.00;;;;;;;;;;5127274;27;20825;-66
2022/09/17 10:14:36;;;;;;;3.63;1.63;;;;;;;;;;5121447;27;20298;-64
2022/09/17 10:17:23;;;;;;;4.10;1.90;;;;;;;;;;5112518;28;20286;-66
2022/09/17 10:19:59;;;;;;;1.97;1.50;;;;;;;;;;5124398;28;20245;-67
2022/09/17 10:22:53;;;;;;;5.77;2.00;;;;;;;;;;5111858;28;20281;-65
2022/09/17 10:25:30;;;;;;;3.60;1.60;;;;;;;;;;5108942;28;20322;-65
2022/09/17 10:27:59;;;;;;;6.57;1.90;;;;;;;;;;5113707;28;20309;-65
2022/09/17 10:30:26;;;;;;;5.27;1.70;;;;;;;;;;5130848;28;20307;-65
2022/09/17 10:33:23;;;;;;;5.67;1.90;;;;;;;;;;5112661;28;20234;-66
2022/09/17 10:35:56;;;;;;;4.33;1.77;;;;;;;;;;5093559;28;20550;-65
2022/09/17 10:38:34;;;;;;;5.43;1.70;;;;;;;;;;5112751;28;20281;-66
2022/09/17 10:41:10;;;;;;;6.80;1.70;;;;;;;;;;5126432;27;20287;-65
2022/09/17 10:43:37;;;;;;;4.70;1.80;;;;;;;;;;5122154;27;20305;-66
2022/09/17 10:46:07;;;;;;;3.83;1.63;;;;;;;;;;5112405;28;20199;-63
2022/09/17 10:48:38;;;;;;;5.93;2.10;;;;;;;;;;5112909;28;20187;-64
2022/09/17 10:51:07;;;;;;;6.07;2.10;;;;;;;;;;5112208;28;20220;-64
2022/09/17 10:53:40;;;;;;;5.63;2.00;;;;;;;;;;5104887;28;20257;-65
2022/09/17 10:56:37;;;;;;;8.17;2.43;;;;;;;;;;5112737;28;20287;-65
2022/09/17 10:59:23;;;;;;;8.07;2.30;;;;;;;;;;5113500;28;20252;-66
2022/09/17 11:01:58;;;;;;;2.97;1.50;;;;;;;;;;5129589;27;20203;-68
2022/09/17 11:04:25;;;;;;;7.33;2.03;;;;;;;;;;5133046;27;20215;-63
2022/09/17 11:07:12;;;;;;;6.10;1.77;;;;;;;;;;5117081;28;20291;-68
2022/09/17 11:09:48;;;;;;;6.23;1.70;;;;;;;;;;5132225;28;20247;-68
2022/09/17 11:12:22;;;;;;;3.43;1.40;;;;;;;;;;5099779;28;20235;-63
2022/09/17 11:15:10;;;;;;;7.47;1.87;;;;;;;;;;5110839;28;20224;-64
2022/09/17 11:17:37;;;;;;;5.20;2.07;;;;;;;;;;5128599;27;20738;-66
2022/09/17 11:20:08;;;;;;;4.93;1.53;;;;;;;;;;5112561;28;20283;-68
2022/09/17 11:22:38;;;;;;;6.17;1.40;;;;;;;;;;5104190;28;20679;-65
2022/09/17 11:25:05;;;;;;;5.43;1.90;;;;;;;;;;5112682;28;20259;-65
2022/09/17 11:27:38;;;;;;;4.93;1.90;;;;;;;;;;5112197;28;20295;-66
2022/09/17 11:30:16;;;;;;;4.90;1.50;;;;;;;;;;5112489;28;20212;-65
2022/09/17 11:32:59;;;;;;;3.83;1.47;;;;;;;;;;5112718;28;20744;-67
2022/09/17 11:35:26;;;;;;;4.00;1.47;;;;;;;;;;5118030;27;20302;-66
2022/09/17 11:38:10;;;;;;;3.03;1.30;;;;;;;;;;5115482;27;20282;-64
2022/09/17 11:40:40;;;;;;;5.07;1.33;;;;;;;;;;5115888;27;20207;-64
2022/09/17 11:43:11;;;;;;;4.27;1.60;;;;;;;;;;5111998;27;20200;-66
2022/09/17 11:45:40;;;;;;;6.03;1.87;;;;;;;;;;5124546;27;20298;-68
2022/09/17 11:48:14;;;;;;;6.80;1.50;;;;;;;;;;5115656;27;20753;-64
2022/09/17 11:50:43;;;;;;;4.30;1.40;;;;;;;;;;5115499;27;20248;-65
2022/09/17 11:53:30;;;;;;;4.60;1.50;;;;;;;;;;5117651;27;20203;-66
2022/09/17 11:56:04;;;;;;;3.60;1.30;;;;;;;;;;5115249;27;20651;-66
2022/09/17 11:58:38;;;;;;;3.97;1.10;;;;;;;;;;5114844;27;20238;-66
2022/09/17 12:01:11;;;;;;;2.67;1.30;;;;;;;;;;5115384;27;20281;-65
2022/09/17 12:03:53;;;;;;;2.60;1.20;;;;;;;;;;5111539;28;20248;-65
2022/09/17 12:06:25;;;;;;;4.73;1.33;;;;;;;;;;5112500;27;20199;-65
2022/09/17 12:09:10;;;;;;;3.73;1.33;;;;;;;;;;5127306;27;20319;-64
2022/09/17 12:11:37;;;;;;;2.27;1.07;;;;;;;;;;5115568;27;20593;-67
2022/09/17 12:14:09;;;;;;;3.80;1.40;;;;;;;;;;5112446;27;20235;-66
2022/09/17 12:16:38;;;;;;;2.33;1.17;;;;;;;;;;5114595;27;20571;-65
2022/09/17 12:19:27;;;;;;;2.00;1.27;;;;;;;;;;5114471;27;20287;-63
2022/09/17 12:21:57;;;;;;;4.80;1.43;;;;;;;;;;5114977;27;20192;-66
2022/09/17 12:24:26;;;;;;;3.70;1.40;;;;;;;;;;5114757;27;20307;-66
2022/09/17 12:26:59;;;;;;;2.20;1.73;;;;;;;;;;5114756;27;20291;-65
2022/09/17 12:29:36;;;;;;;4.80;1.20;;;;;;;;;;5114404;27;20645;-65
2022/09/17 12:32:06;;;;;;;2.77;1.30;;;;;;;;;;5115056;27;20199;-68
2022/09/17 12:34:52;;;;;;;3.17;1.27;;;;;;;;;;5114931;27;20213;-65
2022/09/17 12:37:38;;;;;;;1.20;1.00;;;;;;;;;;5114892;27;20708;-64
2022/09/17 12:40:10;;;;;;;4.23;1.23;;;;;;;;;;5114766;27;20221;-66
2022/09/17 12:42:48;;;;;;;4.37;1.20;;;;;;;;;;5133915;27;20211;-66
2022/09/17 12:45:15;;;;;;;2.90;1.30;;;;;;;;;;5111383;27;20230;-66
2022/09/17 12:47:42;;;;;;;5.30;1.20;;;;;;;;;;5114046;27;20617;-66
2022/09/17 12:50:22;;;;;;;2.93;1.00;;;;;;;;;;5111039;27;20238;-65
2022/09/17 12:53:06;;;;;;;3.57;1.43;;;;;;;;;;5114707;27;20238;-66
2022/09/17 12:55:37;;;;;;;3.30;1.47;;;;;;;;;;5114402;27;20295;-64
2022/09/17 12:58:10;;;;;;;5.77;1.93;;;;;;;;;;5113861;27;20295;-65
2022/09/17 13:00:56;;;;;;;1.10;1.00;;;;;;;;;;5114995;27;20203;-66
2022/09/17 13:03:27;;;;;;;1.43;1.30;;;;;;;;;;5112404;27;20214;-65
2022/09/17 13:06:03;;;;;;;1.67;0.97;;;;;;;;;;5132307;27;20737;-64
2022/09/17 13:08:42;;;;;;;3.00;1.10;;;;;;;;;;5114093;27;20753;-65
2022/09/17 13:11:28;;;;;;;1.40;1.10;;;;;;;;;;5132256;27;20732;-66
2022/09/17 13:13:55;;;;;;;1.40;0.90;;;;;;;;;;5114124;27;20744;-66
2022/09/17 13:16:43;;;;;;;2.33;1.23;;;;;;;;;;5114535;27;20206;-65
2022/09/17 13:19:16;;;;;;;1.13;1.10;;;;;;;;;;5113630;27;20291;-65
2022/09/17 13:21:48;;;;;;;3.27;1.20;;;;;;;;;;5114303;27;20612;-67
2022/09/17 13:24:17;;;;;;;4.60;1.40;;;;;;;;;;5113770;27;21140;-65
2022/09/17 13:26:45;;;;;;;2.17;1.20;;;;;;;;;;5113436;27;20648;-66
2022/09/17 13:29:36;;;;;;;3.10;1.17;;;;;;;;;;5113566;27;20264;-64
2022/09/17 13:32:03;;;;;;;2.43;1.10;;;;;;;;;;5092004;27;20227;-65
2022/09/17 13:34:34;;;;;;;4.00;1.27;;;;;;;;;;5114018;27;20266;-64
2022/09/17 13:37:17;;;;;;;1.70;0.97;;;;;;;;;;5112588;27;20286;-65
2022/09/17 13:39:49;;;;;;;2.10;1.03;;;;;;;;;;5124691;27;20659;-65
2022/09/17 13:42:23;;;;;;;1.20;1.10;;;;;;;;;;5113899;27;20211;-64
2022/09/17 13:44:53;;;;;;;3.67;1.33;;;;;;;;;;5113417;27;20255;-65
2022/09/17 13:47:23;;;;;;;1.93;1.20;;;;;;;;;;5113191;27;20314;-64
2022/09/17 13:49:52;;;;;;;1.93;1.17;;;;;;;;;;5113624;27;20231;-65
2022/09/17 13:52:30;;;;;;;1.80;1.07;;;;;;;;;;5092858;28;20203;-65
2022/09/17 13:54:57;;;;;;;2.30;1.00;;;;;;;;;;5093153;28;20360;-65
2022/09/17 13:57:25;;;;;;;1.10;0.90;;;;;;;;;;5095087;28;20295;-65
2022/09/17 13:59:58;;;;;;;3.23;1.30;;;;;;;;;;5112895;27;20731;-65
2022/09/17 14:02:30;;;;;;;4.00;1.50;;;;;;;;;;5112978;27;20662;-65
2022/09/17 14:05:22;;;;;;;1.73;1.40;;;;;;;;;;5112307;27;20215;-64
2022/09/17 14:07:50;;;;;;;2.27;1.23;;;;;;;;;;5111767;27;20206;-65
2022/09/17 14:10:17;;;;;;;3.70;1.50;;;;;;;;;;5129626;27;20216;-65
2022/09/17 14:12:51;;;;;;;1.60;1.50;;;;;;;;;;5112874;27;20196;-66
2022/09/17 14:15:35;;;;;;;2.20;1.20;;;;;;;;;;5113213;28;20283;-65
2022/09/17 14:18:22;;;;;;;1.87;1.20;;;;;;;;;;5113048;27;20665;-63
2022/09/17 14:20:52;;;;;;;4.23;1.60;;;;;;;;;;5112754;28;20668;-65
2022/09/17 14:23:19;;;;;;;1.90;1.10;;;;;;;;;;5113024;28;20245;-63
2022/09/17 14:25:53;;;;;;;1.57;1.40;;;;;;;;;;5113331;28;20298;-65
2022/09/17 14:28:20;;;;;;;2.03;1.40;;;;;;;;;;5112651;28;20213;-66
2022/09/17 14:30:48;;;;;;;1.20;1.10;;;;;;;;;;5112762;28;20310;-65
2022/09/17 14:33:18;;;;;;;2.27;1.10;;;;;;;;;;5112590;28;20290;-65
2022/09/17 14:35:45;;;;;;;2.00;1.23;;;;;;;;;;5112346;28;20291;-64
2022/09/17 14:38:32;;;;;;;1.00;1.00;;;;;;;;;;5112374;28;20290;-65
2022/09/17 14:41:05;;;;;;;1.83;1.20;;;;;;;;;;5113088;27;20286;-65
2022/09/17 14:43:52;;;;;;;1.80;1.20;;;;;;;;;;5130687;28;20314;-65
2022/09/17 14:46:22;;;;;;;0.90;0.90;;;;;;;;;;5129373;28;20243;-65
2022/09/17 14:48:50;;;;;;;1.17;0.90;;;;;;;;;;5111586;28;20640;-65
2022/09/17 14:51:17;;;;;;;0.87;0.80;;;;;;;;;;5112906;28;20262;-65
2022/09/17 14:53:45;;;;;;;2.00;0.93;;;;;;;;;;5119441;28;20224;-67
2022/09/17 14:56:14;;;;;;;1.70;1.00;;;;;;;;;;5137496;28;20333;-68
2022/09/17 14:58:43;;;;;;;1.17;0.93;;;;;;;;;;5120207;28;20278;-66
2022/09/17 15:01:21;;;;;;;0.83;0.80;;;;;;;;;;5112755;28;20206;-65
2022/09/17 15:03:49;;;;;;;1.10;1.00;;;;;;;;;;5112801;28;20655;-66
2022/09/17 15:06:20;;;;;;;1.30;1.00;;;;;;;;;;5111808;28;20584;-66
2022/09/17 15:08:48;;;;;;;1.73;0.87;;;;;;;;;;5113442;27;20672;-66